sensor_id;sensor_type;location;lat;lon;timestamp;P1;durP1;ratioP1;P2;durP2;ratioP2
7336;SDS011;54510;42.016;23.098;2022-08-24T00:01:13;9.23;;;7.35;;
7336;SDS011;54510;42.016;23.098;2022-08-24T00:03:40;15.57;;;7.80;;
7336;SDS011;54510;42.016;23.098;2022-08-24T00:06:08;11.75;;;7.28;;
7336;SDS011;54510;42.016;23.098;2022-08-24T00:08:37;13.93;;;7.10;;
7336;SDS011;54510;42.016;23.098;2022-08-24T00:11:04;13.68;;;8.05;;
7336;SDS011;54510;42.016;23.098;2022-08-24T00:13:31;9.85;;;7.43;;
7336;SDS011;54510;42.016;23.098;2022-08-24T00:15:56;8.93;;;7.13;;
7336;SDS011;54510;42.016;23.098;2022-08-24T00:18:22;12.55;;;7.13;;
7336;SDS011;54510;42.016;23.098;2022-08-24T00:20:48;12.73;;;8.00;;
7336;SDS011;54510;42.016;23.098;2022-08-24T00:23:13;9.85;;;6.90;;
7336;SDS011;54510;42.016;23.098;2022-08-24T00:25:40;12.20;;;6.75;;
7336;SDS011;54510;42.016;23.098;2022-08-24T00:28:06;15.23;;;7.82;;
7336;SDS011;54510;42.016;23.098;2022-08-24T00:30:32;13.25;;;8.23;;
7336;SDS011;54510;42.016;23.098;2022-08-24T00:32:58;10.52;;;6.80;;
7336;SDS011;54510;42.016;23.098;2022-08-24T00:35:24;15.32;;;7.35;;
7336;SDS011;54510;42.016;23.098;2022-08-24T00:37:50;13.05;;;7.97;;
7336;SDS011;54510;42.016;23.098;2022-08-24T00:40:25;8.73;;;6.57;;
7336;SDS011;54510;42.016;23.098;2022-08-24T00:42:58;19.15;;;7.00;;
7336;SDS011;54510;42.016;23.098;2022-08-24T00:45:27;11.25;;;7.47;;
7336;SDS011;54510;42.016;23.098;2022-08-24T00:47:55;15.50;;;7.35;;
7336;SDS011;54510;42.016;23.098;2022-08-24T00:50:42;12.43;;;7.45;;
7336;SDS011;54510;42.016;23.098;2022-08-24T00:53:17;16.77;;;7.47;;
7336;SDS011;54510;42.016;23.098;2022-08-24T00:55:49;12.13;;;7.40;;
7336;SDS011;54510;42.016;23.098;2022-08-24T00:58:21;13.38;;;7.10;;
7336;SDS011;54510;42.016;23.098;2022-08-24T01:00:56;9.63;;;7.25;;
7336;SDS011;54510;42.016;23.098;2022-08-24T01:03:23;15.02;;;7.57;;
7336;SDS011;54510;42.016;23.098;2022-08-24T01:05:51;12.25;;;7.45;;
7336;SDS011;54510;42.016;23.098;2022-08-24T01:08:16;13.15;;;8.48;;
7336;SDS011;54510;42.016;23.098;2022-08-24T01:10:46;11.13;;;7.85;;
7336;SDS011;54510;42.016;23.098;2022-08-24T01:13:18;15.80;;;8.15;;
7336;SDS011;54510;42.016;23.098;2022-08-24T01:15:45;11.82;;;7.32;;
7336;SDS011;54510;42.016;23.098;2022-08-24T01:18:16;13.05;;;7.70;;
7336;SDS011;54510;42.016;23.098;2022-08-24T01:21:11;10.05;;;7.63;;
7336;SDS011;54510;42.016;23.098;2022-08-24T01:26:07;13.60;;;7.93;;
7336;SDS011;54510;42.016;23.098;2022-08-24T01:28:35;10.30;;;7.45;;
7336;SDS011;54510;42.016;23.098;2022-08-24T01:31:04;9.70;;;8.30;;
7336;SDS011;54510;42.016;23.098;2022-08-24T01:33:30;14.18;;;7.45;;
7336;SDS011;54510;42.016;23.098;2022-08-24T01:35:57;10.38;;;7.10;;
7336;SDS011;54510;42.016;23.098;2022-08-24T01:38:26;14.43;;;7.55;;
7336;SDS011;54510;42.016;23.098;2022-08-24T01:40:54;18.02;;;7.85;;
7336;SDS011;54510;42.016;23.098;2022-08-24T01:43:24;14.15;;;7.47;;
7336;SDS011;54510;42.016;23.098;2022-08-24T01:45:50;12.75;;;7.13;;
7336;SDS011;54510;42.016;23.098;2022-08-24T01:48:16;12.10;;;7.95;;
7336;SDS011;54510;42.016;23.098;2022-08-24T01:50:43;15.43;;;7.97;;
7336;SDS011;54510;42.016;23.098;2022-08-24T01:53:09;12.15;;;7.32;;
7336;SDS011;54510;42.016;23.098;2022-08-24T01:55:34;12.57;;;7.53;;
7336;SDS011;54510;42.016;23.098;2022-08-24T01:58:00;12.23;;;7.13;;
7336;SDS011;54510;42.016;23.098;2022-08-24T02:00:26;13.43;;;7.43;;
7336;SDS011;54510;42.016;23.098;2022-08-24T02:02:52;12.02;;;7.07;;
7336;SDS011;54510;42.016;23.098;2022-08-24T02:05:19;12.00;;;7.13;;
7336;SDS011;54510;42.016;23.098;2022-08-24T02:07:44;13.73;;;8.10;;
7336;SDS011;54510;42.016;23.098;2022-08-24T02:10:10;10.57;;;7.32;;
7336;SDS011;54510;42.016;23.098;2022-08-24T02:12:38;11.52;;;8.15;;
7336;SDS011;54510;42.016;23.098;2022-08-24T02:15:05;12.63;;;7.53;;
7336;SDS011;54510;42.016;23.098;2022-08-24T02:17:32;18.52;;;8.38;;
7336;SDS011;54510;42.016;23.098;2022-08-24T02:19:58;10.70;;;7.32;;
7336;SDS011;54510;42.016;23.098;2022-08-24T02:22:24;12.13;;;7.80;;
7336;SDS011;54510;42.016;23.098;2022-08-24T02:24:50;15.23;;;8.32;;
7336;SDS011;54510;42.016;23.098;2022-08-24T02:27:15;12.00;;;8.23;;
7336;SDS011;54510;42.016;23.098;2022-08-24T02:29:41;10.57;;;7.82;;
7336;SDS011;54510;42.016;23.098;2022-08-24T02:32:07;14.50;;;7.18;;
7336;SDS011;54510;42.016;23.098;2022-08-24T02:34:33;11.25;;;7.90;;
7336;SDS011;54510;42.016;23.098;2022-08-24T02:36:58;12.18;;;7.50;;
7336;SDS011;54510;42.016;23.098;2022-08-24T02:39:24;11.93;;;7.40;;
7336;SDS011;54510;42.016;23.098;2022-08-24T02:41:51;12.48;;;7.78;;
7336;SDS011;54510;42.016;23.098;2022-08-24T02:44:16;13.20;;;6.97;;
7336;SDS011;54510;42.016;23.098;2022-08-24T02:46:42;11.90;;;7.75;;
7336;SDS011;54510;42.016;23.098;2022-08-24T02:49:07;11.35;;;8.02;;
7336;SDS011;54510;42.016;23.098;2022-08-24T02:51:33;14.65;;;8.52;;
7336;SDS011;54510;42.016;23.098;2022-08-24T02:53:59;11.93;;;8.05;;
7336;SDS011;54510;42.016;23.098;2022-08-24T02:56:27;11.38;;;6.90;;
7336;SDS011;54510;42.016;23.098;2022-08-24T02:58:56;10.77;;;7.60;;
7336;SDS011;54510;42.016;23.098;2022-08-24T03:01:23;11.27;;;7.95;;
7336;SDS011;54510;42.016;23.098;2022-08-24T03:03:49;10.52;;;7.57;;
7336;SDS011;54510;42.016;23.098;2022-08-24T03:06:15;13.63;;;7.07;;
7336;SDS011;54510;42.016;23.098;2022-08-24T03:08:41;14.63;;;8.20;;
7336;SDS011;54510;42.016;23.098;2022-08-24T03:11:07;10.98;;;7.45;;
7336;SDS011;54510;42.016;23.098;2022-08-24T03:13:33;13.30;;;7.53;;
7336;SDS011;54510;42.016;23.098;2022-08-24T03:15:59;11.50;;;6.95;;
7336;SDS011;54510;42.016;23.098;2022-08-24T03:18:25;10.73;;;8.18;;
7336;SDS011;54510;42.016;23.098;2022-08-24T03:20:52;10.02;;;7.45;;
7336;SDS011;54510;42.016;23.098;2022-08-24T03:23:21;11.52;;;8.35;;
7336;SDS011;54510;42.016;23.098;2022-08-24T03:25:48;11.57;;;8.38;;
7336;SDS011;54510;42.016;23.098;2022-08-24T03:28:14;15.40;;;7.75;;
7336;SDS011;54510;42.016;23.098;2022-08-24T03:30:39;10.45;;;7.70;;
7336;SDS011;54510;42.016;23.098;2022-08-24T03:33:06;17.48;;;7.65;;
7336;SDS011;54510;42.016;23.098;2022-08-24T03:35:32;13.75;;;7.57;;
7336;SDS011;54510;42.016;23.098;2022-08-24T03:37:58;10.93;;;7.10;;
7336;SDS011;54510;42.016;23.098;2022-08-24T03:40:24;10.40;;;7.93;;
7336;SDS011;54510;42.016;23.098;2022-08-24T03:42:51;12.32;;;7.78;;
7336;SDS011;54510;42.016;23.098;2022-08-24T03:45:17;13.85;;;7.35;;
7336;SDS011;54510;42.016;23.098;2022-08-24T03:47:42;12.93;;;8.35;;
7336;SDS011;54510;42.016;23.098;2022-08-24T03:50:09;11.48;;;7.43;;
7336;SDS011;54510;42.016;23.098;2022-08-24T03:52:35;11.95;;;7.35;;
7336;SDS011;54510;42.016;23.098;2022-08-24T03:55:01;15.20;;;7.88;;
7336;SDS011;54510;42.016;23.098;2022-08-24T03:57:30;10.35;;;7.60;;
7336;SDS011;54510;42.016;23.098;2022-08-24T03:59:56;13.80;;;8.25;;
7336;SDS011;54510;42.016;23.098;2022-08-24T04:02:21;14.80;;;7.25;;
7336;SDS011;54510;42.016;23.098;2022-08-24T04:04:47;11.95;;;7.35;;
7336;SDS011;54510;42.016;23.098;2022-08-24T04:07:12;12.65;;;7.93;;
7336;SDS011;54510;42.016;23.098;2022-08-24T04:09:38;12.65;;;8.30;;
7336;SDS011;54510;42.016;23.098;2022-08-24T04:12:03;15.32;;;8.23;;
7336;SDS011;54510;42.016;23.098;2022-08-24T04:14:29;13.18;;;8.35;;
7336;SDS011;54510;42.016;23.098;2022-08-24T04:16:54;14.63;;;7.90;;
7336;SDS011;54510;42.016;23.098;2022-08-24T04:19:20;12.10;;;9.23;;
7336;SDS011;54510;42.016;23.098;2022-08-24T04:21:45;12.68;;;8.77;;
7336;SDS011;54510;42.016;23.098;2022-08-24T04:24:11;11.88;;;8.60;;
7336;SDS011;54510;42.016;23.098;2022-08-24T04:26:37;10.25;;;7.65;;
7336;SDS011;54510;42.016;23.098;2022-08-24T04:29:05;12.25;;;8.88;;
7336;SDS011;54510;42.016;23.098;2022-08-24T04:31:33;14.73;;;8.93;;
7336;SDS011;54510;42.016;23.098;2022-08-24T04:34:02;15.65;;;8.73;;
7336;SDS011;54510;42.016;23.098;2022-08-24T04:36:28;17.02;;;8.10;;
7336;SDS011;54510;42.016;23.098;2022-08-24T04:38:53;16.60;;;9.57;;
7336;SDS011;54510;42.016;23.098;2022-08-24T04:41:19;15.63;;;9.18;;
7336;SDS011;54510;42.016;23.098;2022-08-24T04:43:44;16.88;;;8.38;;
7336;SDS011;54510;42.016;23.098;2022-08-24T04:46:11;13.95;;;8.65;;
7336;SDS011;54510;42.016;23.098;2022-08-24T04:48:39;16.27;;;9.93;;
7336;SDS011;54510;42.016;23.098;2022-08-24T04:51:06;10.52;;;8.30;;
7336;SDS011;54510;42.016;23.098;2022-08-24T04:53:33;17.48;;;9.07;;
7336;SDS011;54510;42.016;23.098;2022-08-24T04:56:00;12.95;;;9.10;;
7336;SDS011;54510;42.016;23.098;2022-08-24T04:58:26;13.07;;;9.65;;
7336;SDS011;54510;42.016;23.098;2022-08-24T05:00:53;14.85;;;9.38;;
7336;SDS011;54510;42.016;23.098;2022-08-24T05:03:19;12.32;;;8.38;;
7336;SDS011;54510;42.016;23.098;2022-08-24T05:05:46;17.50;;;9.25;;
7336;SDS011;54510;42.016;23.098;2022-08-24T05:08:13;12.48;;;8.23;;
7336;SDS011;54510;42.016;23.098;2022-08-24T05:10:40;12.63;;;8.75;;
7336;SDS011;54510;42.016;23.098;2022-08-24T05:13:08;18.02;;;8.82;;
7336;SDS011;54510;42.016;23.098;2022-08-24T05:15:35;10.45;;;8.10;;
7336;SDS011;54510;42.016;23.098;2022-08-24T05:18:04;16.48;;;8.05;;
7336;SDS011;54510;42.016;23.098;2022-08-24T05:20:31;11.57;;;8.63;;
7336;SDS011;54510;42.016;23.098;2022-08-24T05:22:57;13.93;;;9.20;;
7336;SDS011;54510;42.016;23.098;2022-08-24T05:25:22;11.70;;;8.88;;
7336;SDS011;54510;42.016;23.098;2022-08-24T05:27:48;15.73;;;8.40;;
7336;SDS011;54510;42.016;23.098;2022-08-24T05:30:15;17.70;;;9.25;;
7336;SDS011;54510;42.016;23.098;2022-08-24T05:32:40;16.00;;;9.10;;
7336;SDS011;54510;42.016;23.098;2022-08-24T05:35:06;16.13;;;9.57;;
7336;SDS011;54510;42.016;23.098;2022-08-24T05:37:36;13.18;;;8.82;;
7336;SDS011;54510;42.016;23.098;2022-08-24T05:40:04;14.48;;;9.27;;
7336;SDS011;54510;42.016;23.098;2022-08-24T05:42:32;12.90;;;8.43;;
7336;SDS011;54510;42.016;23.098;2022-08-24T05:44:57;14.85;;;8.15;;
7336;SDS011;54510;42.016;23.098;2022-08-24T05:47:23;15.75;;;10.65;;
7336;SDS011;54510;42.016;23.098;2022-08-24T05:49:49;15.20;;;10.73;;
7336;SDS011;54510;42.016;23.098;2022-08-24T05:52:19;20.95;;;10.55;;
7336;SDS011;54510;42.016;23.098;2022-08-24T05:54:50;18.30;;;10.13;;
7336;SDS011;54510;42.016;23.098;2022-08-24T05:57:20;18.60;;;9.90;;
7336;SDS011;54510;42.016;23.098;2022-08-24T05:59:47;12.85;;;8.52;;
7336;SDS011;54510;42.016;23.098;2022-08-24T06:02:13;18.25;;;9.50;;
7336;SDS011;54510;42.016;23.098;2022-08-24T06:04:40;16.85;;;10.48;;
7336;SDS011;54510;42.016;23.098;2022-08-24T06:07:05;20.13;;;9.25;;
7336;SDS011;54510;42.016;23.098;2022-08-24T06:09:35;20.27;;;13.55;;
7336;SDS011;54510;42.016;23.098;2022-08-24T06:12:01;18.98;;;11.27;;
7336;SDS011;54510;42.016;23.098;2022-08-24T06:14:27;18.25;;;10.25;;
7336;SDS011;54510;42.016;23.098;2022-08-24T06:16:53;16.27;;;9.75;;
7336;SDS011;54510;42.016;23.098;2022-08-24T06:19:19;18.52;;;9.98;;
7336;SDS011;54510;42.016;23.098;2022-08-24T06:21:46;18.27;;;11.45;;
7336;SDS011;54510;42.016;23.098;2022-08-24T06:24:13;21.70;;;11.13;;
7336;SDS011;54510;42.016;23.098;2022-08-24T06:26:41;32.17;;;12.90;;
7336;SDS011;54510;42.016;23.098;2022-08-24T06:29:25;29.27;;;11.55;;
7336;SDS011;54510;42.016;23.098;2022-08-24T06:31:51;17.15;;;10.77;;
7336;SDS011;54510;42.016;23.098;2022-08-24T06:34:17;25.40;;;10.40;;
7336;SDS011;54510;42.016;23.098;2022-08-24T06:36:43;26.23;;;12.10;;
7336;SDS011;54510;42.016;23.098;2022-08-24T06:39:09;26.02;;;10.82;;
7336;SDS011;54510;42.016;23.098;2022-08-24T06:41:36;17.23;;;10.35;;
7336;SDS011;54510;42.016;23.098;2022-08-24T06:44:03;13.82;;;10.15;;
7336;SDS011;54510;42.016;23.098;2022-08-24T06:46:28;15.80;;;10.15;;
7336;SDS011;54510;42.016;23.098;2022-08-24T06:48:54;20.50;;;10.48;;
7336;SDS011;54510;42.016;23.098;2022-08-24T06:51:19;13.07;;;9.60;;
7336;SDS011;54510;42.016;23.098;2022-08-24T06:53:46;17.27;;;9.43;;
7336;SDS011;54510;42.016;23.098;2022-08-24T06:56:12;15.13;;;9.75;;
7336;SDS011;54510;42.016;23.098;2022-08-24T06:58:38;16.45;;;10.93;;
7336;SDS011;54510;42.016;23.098;2022-08-24T07:01:14;15.45;;;9.43;;
7336;SDS011;54510;42.016;23.098;2022-08-24T07:03:42;14.43;;;10.45;;
7336;SDS011;54510;42.016;23.098;2022-08-24T07:06:08;12.82;;;9.88;;
7336;SDS011;54510;42.016;23.098;2022-08-24T07:08:35;17.63;;;10.40;;
7336;SDS011;54510;42.016;23.098;2022-08-24T07:11:01;18.77;;;11.57;;
7336;SDS011;54510;42.016;23.098;2022-08-24T07:13:27;12.40;;;9.63;;
7336;SDS011;54510;42.016;23.098;2022-08-24T07:15:55;15.43;;;11.07;;
7336;SDS011;54510;42.016;23.098;2022-08-24T07:18:21;17.95;;;10.23;;
7336;SDS011;54510;42.016;23.098;2022-08-24T07:20:46;16.65;;;10.27;;
7336;SDS011;54510;42.016;23.098;2022-08-24T07:23:13;16.15;;;10.25;;
7336;SDS011;54510;42.016;23.098;2022-08-24T07:25:39;17.75;;;13.35;;
7336;SDS011;54510;42.016;23.098;2022-08-24T07:28:05;22.52;;;15.70;;
7336;SDS011;54510;42.016;23.098;2022-08-24T07:30:31;18.85;;;13.57;;
7336;SDS011;54510;42.016;23.098;2022-08-24T07:32:57;15.52;;;10.90;;
7336;SDS011;54510;42.016;23.098;2022-08-24T07:35:23;10.77;;;7.50;;
7336;SDS011;54510;42.016;23.098;2022-08-24T07:37:50;10.52;;;7.32;;
7336;SDS011;54510;42.016;23.098;2022-08-24T07:40:17;10.18;;;7.45;;
7336;SDS011;54510;42.016;23.098;2022-08-24T07:42:46;10.18;;;7.93;;
7336;SDS011;54510;42.016;23.098;2022-08-24T07:45:15;10.75;;;8.13;;
7336;SDS011;54510;42.016;23.098;2022-08-24T07:47:41;13.43;;;7.25;;
7336;SDS011;54510;42.016;23.098;2022-08-24T07:50:07;11.98;;;8.57;;
7336;SDS011;54510;42.016;23.098;2022-08-24T07:52:33;14.73;;;7.60;;
7336;SDS011;54510;42.016;23.098;2022-08-24T07:54:59;16.40;;;8.60;;
7336;SDS011;54510;42.016;23.098;2022-08-24T07:57:25;37.92;;;22.88;;
7336;SDS011;54510;42.016;23.098;2022-08-24T07:59:51;12.10;;;6.88;;
7336;SDS011;54510;42.016;23.098;2022-08-24T08:02:16;9.00;;;6.13;;
7336;SDS011;54510;42.016;23.098;2022-08-24T08:04:42;10.10;;;7.03;;
7336;SDS011;54510;42.016;23.098;2022-08-24T08:07:07;9.88;;;6.22;;
7336;SDS011;54510;42.016;23.098;2022-08-24T08:09:36;10.20;;;5.93;;
7336;SDS011;54510;42.016;23.098;2022-08-24T08:12:02;9.98;;;5.53;;
7336;SDS011;54510;42.016;23.098;2022-08-24T08:14:28;15.93;;;9.02;;
7336;SDS011;54510;42.016;23.098;2022-08-24T08:16:53;13.38;;;8.10;;
7336;SDS011;54510;42.016;23.098;2022-08-24T08:19:19;13.32;;;6.07;;
7336;SDS011;54510;42.016;23.098;2022-08-24T08:21:46;14.02;;;5.82;;
7336;SDS011;54510;42.016;23.098;2022-08-24T08:24:31;8.52;;;5.72;;
7336;SDS011;54510;42.016;23.098;2022-08-24T08:26:57;7.72;;;5.43;;
7336;SDS011;54510;42.016;23.098;2022-08-24T08:29:23;9.05;;;6.10;;
7336;SDS011;54510;42.016;23.098;2022-08-24T08:31:50;9.57;;;5.60;;
7336;SDS011;54510;42.016;23.098;2022-08-24T08:34:18;9.55;;;5.82;;
7336;SDS011;54510;42.016;23.098;2022-08-24T08:36:44;9.93;;;6.00;;
7336;SDS011;54510;42.016;23.098;2022-08-24T08:39:11;6.78;;;4.75;;
7336;SDS011;54510;42.016;23.098;2022-08-24T08:50:16;11.63;;;5.18;;
7336;SDS011;54510;42.016;23.098;2022-08-24T08:55:29;6.95;;;4.70;;
7336;SDS011;54510;42.016;23.098;2022-08-24T09:01:16;6.15;;;5.55;;
7336;SDS011;54510;42.016;23.098;2022-08-24T09:12:13;8.45;;;4.95;;
7336;SDS011;54510;42.016;23.098;2022-08-24T09:26:22;8.30;;;5.55;;
7336;SDS011;54510;42.016;23.098;2022-08-24T09:31:44;5.60;;;4.78;;
7336;SDS011;54510;42.016;23.098;2022-08-24T09:59:49;5.30;;;4.80;;
7336;SDS011;54510;42.016;23.098;2022-08-24T10:05:30;7.90;;;4.90;;
7336;SDS011;54510;42.016;23.098;2022-08-24T10:16:39;5.82;;;4.50;;
7336;SDS011;54510;42.016;23.098;2022-08-24T10:22:06;5.53;;;4.88;;
7336;SDS011;54510;42.016;23.098;2022-08-24T10:33:11;9.30;;;4.95;;
7336;SDS011;54510;42.016;23.098;2022-08-24T10:46:47;5.32;;;4.45;;
7336;SDS011;54510;42.016;23.098;2022-08-24T10:49:22;6.72;;;4.80;;
7336;SDS011;54510;42.016;23.098;2022-08-24T10:54:24;7.15;;;4.63;;
7336;SDS011;54510;42.016;23.098;2022-08-24T11:02:43;5.55;;;4.57;;
7336;SDS011;54510;42.016;23.098;2022-08-24T11:05:14;6.05;;;4.45;;
7336;SDS011;54510;42.016;23.098;2022-08-24T11:08:02;11.27;;;4.40;;
7336;SDS011;54510;42.016;23.098;2022-08-24T11:10:35;7.50;;;4.38;;
7336;SDS011;54510;42.016;23.098;2022-08-24T11:13:19;9.05;;;4.35;;
7336;SDS011;54510;42.016;23.098;2022-08-24T11:15:50;6.63;;;4.28;;
7336;SDS011;54510;42.016;23.098;2022-08-24T11:18:21;9.75;;;3.60;;
7336;SDS011;54510;42.016;23.098;2022-08-24T11:20:48;8.20;;;4.05;;
7336;SDS011;54510;42.016;23.098;2022-08-24T11:26:09;8.90;;;3.95;;
7336;SDS011;54510;42.016;23.098;2022-08-24T11:28:44;5.43;;;4.07;;
7336;SDS011;54510;42.016;23.098;2022-08-24T11:34:08;7.85;;;4.00;;
7336;SDS011;54510;42.016;23.098;2022-08-24T11:36:40;7.25;;;3.92;;
7336;SDS011;54510;42.016;23.098;2022-08-24T11:44:53;6.43;;;4.18;;
7336;SDS011;54510;42.016;23.098;2022-08-24T11:53:37;6.30;;;4.13;;
7336;SDS011;54510;42.016;23.098;2022-08-24T11:56:04;7.28;;;4.53;;
7336;SDS011;54510;42.016;23.098;2022-08-24T12:01:39;9.10;;;3.95;;
7336;SDS011;54510;42.016;23.098;2022-08-24T12:07:01;7.82;;;4.35;;
7336;SDS011;54510;42.016;23.098;2022-08-24T12:10:08;6.88;;;4.45;;
7336;SDS011;54510;42.016;23.098;2022-08-24T12:21:03;6.50;;;4.43;;
7336;SDS011;54510;42.016;23.098;2022-08-24T12:23:41;6.40;;;3.75;;
7336;SDS011;54510;42.016;23.098;2022-08-24T12:26:11;5.93;;;4.28;;
7336;SDS011;54510;42.016;23.098;2022-08-24T12:28:47;9.45;;;3.40;;
7336;SDS011;54510;42.016;23.098;2022-08-24T12:31:18;6.32;;;3.60;;
7336;SDS011;54510;42.016;23.098;2022-08-24T12:33:46;6.40;;;3.97;;
7336;SDS011;54510;42.016;23.098;2022-08-24T12:36:26;7.00;;;4.00;;
7336;SDS011;54510;42.016;23.098;2022-08-24T12:39:00;6.90;;;3.78;;
7336;SDS011;54510;42.016;23.098;2022-08-24T12:41:33;7.35;;;3.85;;
7336;SDS011;54510;42.016;23.098;2022-08-24T12:44:12;7.47;;;4.40;;
7336;SDS011;54510;42.016;23.098;2022-08-24T12:46:40;5.50;;;3.70;;
7336;SDS011;54510;42.016;23.098;2022-08-24T12:49:24;5.68;;;3.80;;
7336;SDS011;54510;42.016;23.098;2022-08-24T12:54:55;7.13;;;3.70;;
7336;SDS011;54510;42.016;23.098;2022-08-24T13:00:17;6.30;;;3.40;;
7336;SDS011;54510;42.016;23.098;2022-08-24T13:02:53;5.55;;;3.53;;
7336;SDS011;54510;42.016;23.098;2022-08-24T13:05:21;7.15;;;4.18;;
7336;SDS011;54510;42.016;23.098;2022-08-24T13:07:48;7.97;;;3.90;;
7336;SDS011;54510;42.016;23.098;2022-08-24T13:10:33;6.03;;;3.65;;
7336;SDS011;54510;42.016;23.098;2022-08-24T13:33:29;4.38;;;3.80;;
7336;SDS011;54510;42.016;23.098;2022-08-24T13:54:40;8.20;;;4.32;;
7336;SDS011;54510;42.016;23.098;2022-08-24T13:57:33;6.68;;;4.00;;
7336;SDS011;54510;42.016;23.098;2022-08-24T14:00:14;11.70;;;5.15;;
7336;SDS011;54510;42.016;23.098;2022-08-24T14:16:28;8.15;;;4.47;;
7336;SDS011;54510;42.016;23.098;2022-08-24T14:23:02;6.15;;;3.88;;
7336;SDS011;54510;42.016;23.098;2022-08-24T14:25:30;7.13;;;4.00;;
7336;SDS011;54510;42.016;23.098;2022-08-24T14:38:27;11.00;;;4.20;;
7336;SDS011;54510;42.016;23.098;2022-08-24T14:41:19;8.73;;;4.45;;
7336;SDS011;54510;42.016;23.098;2022-08-24T14:44:02;8.05;;;4.90;;
7336;SDS011;54510;42.016;23.098;2022-08-24T14:54:43;13.25;;;6.05;;
7336;SDS011;54510;42.016;23.098;2022-08-24T14:57:35;9.27;;;5.78;;
7336;SDS011;54510;42.016;23.098;2022-08-24T15:00:20;8.43;;;5.70;;
7336;SDS011;54510;42.016;23.098;2022-08-24T15:10:20;11.37;;;6.43;;
7336;SDS011;54510;42.016;23.098;2022-08-24T15:12:52;13.18;;;7.40;;
7336;SDS011;54510;42.016;23.098;2022-08-24T15:15:32;11.00;;;6.55;;
7336;SDS011;54510;42.016;23.098;2022-08-24T15:20:48;11.30;;;6.80;;
7336;SDS011;54510;42.016;23.098;2022-08-24T15:26:01;15.90;;;8.27;;
7336;SDS011;54510;42.016;23.098;2022-08-24T15:28:32;10.35;;;5.53;;
7336;SDS011;54510;42.016;23.098;2022-08-24T15:31:00;12.82;;;6.10;;
7336;SDS011;54510;42.016;23.098;2022-08-24T15:33:29;11.02;;;6.65;;
7336;SDS011;54510;42.016;23.098;2022-08-24T15:36:15;11.52;;;7.07;;
7336;SDS011;54510;42.016;23.098;2022-08-24T15:38:42;26.23;;;6.97;;
7336;SDS011;54510;42.016;23.098;2022-08-24T15:43:37;14.32;;;7.18;;
7336;SDS011;54510;42.016;23.098;2022-08-24T15:46:08;12.60;;;6.80;;
7336;SDS011;54510;42.016;23.098;2022-08-24T15:48:35;18.00;;;6.72;;
7336;SDS011;54510;42.016;23.098;2022-08-24T15:51:01;11.45;;;6.70;;
7336;SDS011;54510;42.016;23.098;2022-08-24T15:53:28;17.90;;;7.28;;
7336;SDS011;54510;42.016;23.098;2022-08-24T15:55:57;11.15;;;6.15;;
7336;SDS011;54510;42.016;23.098;2022-08-24T15:58:46;11.98;;;6.43;;
7336;SDS011;54510;42.016;23.098;2022-08-24T16:04:05;17.77;;;7.57;;
7336;SDS011;54510;42.016;23.098;2022-08-24T16:14:36;16.10;;;7.10;;
7336;SDS011;54510;42.016;23.098;2022-08-24T16:19:51;9.93;;;6.38;;
7336;SDS011;54510;42.016;23.098;2022-08-24T16:30:24;12.30;;;7.32;;
7336;SDS011;54510;42.016;23.098;2022-08-24T16:33:02;14.20;;;7.88;;
7336;SDS011;54510;42.016;23.098;2022-08-24T16:35:28;14.77;;;7.10;;
7336;SDS011;54510;42.016;23.098;2022-08-24T16:37:55;15.77;;;8.65;;
7336;SDS011;54510;42.016;23.098;2022-08-24T16:40:21;13.02;;;7.50;;
7336;SDS011;54510;42.016;23.098;2022-08-24T16:42:47;13.32;;;7.95;;
7336;SDS011;54510;42.016;23.098;2022-08-24T16:45:15;17.30;;;7.82;;
7336;SDS011;54510;42.016;23.098;2022-08-24T16:47:44;14.60;;;6.85;;
7336;SDS011;54510;42.016;23.098;2022-08-24T16:50:11;17.25;;;10.13;;
7336;SDS011;54510;42.016;23.098;2022-08-24T16:52:37;14.52;;;8.45;;
7336;SDS011;54510;42.016;23.098;2022-08-24T16:55:03;14.43;;;8.02;;
7336;SDS011;54510;42.016;23.098;2022-08-24T16:57:30;13.65;;;8.77;;
7336;SDS011;54510;42.016;23.098;2022-08-24T17:00:00;12.57;;;7.57;;
7336;SDS011;54510;42.016;23.098;2022-08-24T17:02:27;9.85;;;7.65;;
7336;SDS011;54510;42.016;23.098;2022-08-24T17:04:52;14.23;;;7.90;;
7336;SDS011;54510;42.016;23.098;2022-08-24T17:07:21;20.00;;;8.95;;
7336;SDS011;54510;42.016;23.098;2022-08-24T17:09:50;16.38;;;8.73;;
7336;SDS011;54510;42.016;23.098;2022-08-24T17:12:16;15.63;;;8.88;;
7336;SDS011;54510;42.016;23.098;2022-08-24T17:14:41;18.73;;;9.00;;
7336;SDS011;54510;42.016;23.098;2022-08-24T17:17:09;12.60;;;8.35;;
7336;SDS011;54510;42.016;23.098;2022-08-24T17:19:37;15.18;;;8.65;;
7336;SDS011;54510;42.016;23.098;2022-08-24T17:22:03;14.48;;;8.23;;
7336;SDS011;54510;42.016;23.098;2022-08-24T17:24:29;10.05;;;7.90;;
7336;SDS011;54510;42.016;23.098;2022-08-24T17:26:55;12.98;;;8.80;;
7336;SDS011;54510;42.016;23.098;2022-08-24T17:29:21;15.02;;;8.80;;
7336;SDS011;54510;42.016;23.098;2022-08-24T17:31:48;11.82;;;8.00;;
7336;SDS011;54510;42.016;23.098;2022-08-24T17:34:14;14.82;;;8.85;;
7336;SDS011;54510;42.016;23.098;2022-08-24T17:36:40;14.40;;;8.93;;
7336;SDS011;54510;42.016;23.098;2022-08-24T17:39:08;18.67;;;9.40;;
7336;SDS011;54510;42.016;23.098;2022-08-24T17:41:36;14.18;;;10.35;;
7336;SDS011;54510;42.016;23.098;2022-08-24T17:44:02;19.08;;;10.73;;
7336;SDS011;54510;42.016;23.098;2022-08-24T17:46:35;15.80;;;9.27;;
7336;SDS011;54510;42.016;23.098;2022-08-24T17:49:01;23.88;;;10.45;;
7336;SDS011;54510;42.016;23.098;2022-08-24T17:51:26;14.27;;;8.20;;
7336;SDS011;54510;42.016;23.098;2022-08-24T17:53:52;15.93;;;9.43;;
7336;SDS011;54510;42.016;23.098;2022-08-24T17:56:18;17.83;;;10.32;;
7336;SDS011;54510;42.016;23.098;2022-08-24T17:58:44;15.82;;;9.45;;
7336;SDS011;54510;42.016;23.098;2022-08-24T18:01:28;16.27;;;9.32;;
7336;SDS011;54510;42.016;23.098;2022-08-24T18:03:54;17.40;;;9.52;;
7336;SDS011;54510;42.016;23.098;2022-08-24T18:06:20;15.77;;;9.57;;
7336;SDS011;54510;42.016;23.098;2022-08-24T18:08:47;18.58;;;10.02;;
7336;SDS011;54510;42.016;23.098;2022-08-24T18:11:14;16.10;;;9.07;;
7336;SDS011;54510;42.016;23.098;2022-08-24T18:13:39;16.75;;;9.98;;
7336;SDS011;54510;42.016;23.098;2022-08-24T18:16:09;12.15;;;9.15;;
7336;SDS011;54510;42.016;23.098;2022-08-24T18:18:40;18.67;;;9.57;;
7336;SDS011;54510;42.016;23.098;2022-08-24T18:21:06;17.67;;;8.43;;
7336;SDS011;54510;42.016;23.098;2022-08-24T18:23:32;17.48;;;9.43;;
7336;SDS011;54510;42.016;23.098;2022-08-24T18:25:57;13.45;;;9.45;;
7336;SDS011;54510;42.016;23.098;2022-08-24T18:28:23;11.93;;;8.90;;
7336;SDS011;54510;42.016;23.098;2022-08-24T18:30:48;15.85;;;9.80;;
7336;SDS011;54510;42.016;23.098;2022-08-24T18:33:14;17.33;;;9.27;;
7336;SDS011;54510;42.016;23.098;2022-08-24T18:35:39;13.27;;;8.57;;
7336;SDS011;54510;42.016;23.098;2022-08-24T18:38:04;16.27;;;8.68;;
7336;SDS011;54510;42.016;23.098;2022-08-24T18:40:30;14.45;;;8.38;;
7336;SDS011;54510;42.016;23.098;2022-08-24T18:42:55;18.25;;;10.02;;
7336;SDS011;54510;42.016;23.098;2022-08-24T18:45:21;16.20;;;9.25;;
7336;SDS011;54510;42.016;23.098;2022-08-24T18:47:49;16.40;;;9.48;;
7336;SDS011;54510;42.016;23.098;2022-08-24T18:50:14;15.77;;;9.90;;
7336;SDS011;54510;42.016;23.098;2022-08-24T18:52:41;18.80;;;9.10;;
7336;SDS011;54510;42.016;23.098;2022-08-24T18:55:07;12.75;;;9.20;;
7336;SDS011;54510;42.016;23.098;2022-08-24T18:57:33;15.65;;;8.55;;
7336;SDS011;54510;42.016;23.098;2022-08-24T18:59:59;16.40;;;9.52;;
7336;SDS011;54510;42.016;23.098;2022-08-24T19:02:24;11.80;;;8.07;;